createdAt,value
2023-10-26T00:00:14.216Z,50.885494
2023-10-26T00:01:14.222Z,50.885544
2023-10-26T00:02:15.253Z,50.885689
2023-10-26T00:03:14.347Z,50.885689
2023-10-26T00:04:14.357Z,50.885754
2023-10-26T00:05:14.186Z,50.885727
2023-10-26T00:06:14.222Z,50.885750
2023-10-26T00:07:14.153Z,50.885628
2023-10-26T00:08:14.153Z,50.885620
2023-10-26T00:09:14.189Z,50.885654
2023-10-26T00:10:14.153Z,50.885632
2023-10-26T00:11:14.104Z,50.885639
2023-10-26T00:12:14.237Z,50.885647
2023-10-26T00:13:14.099Z,50.885674
2023-10-26T00:14:14.113Z,50.885620
2023-10-26T00:15:14.143Z,50.885681
2023-10-26T00:16:14.105Z,50.885815
2023-10-26T00:17:14.157Z,50.885944
2023-10-26T00:18:14.166Z,50.885681
2023-10-26T00:19:14.089Z,50.885662
2023-10-26T00:20:14.102Z,50.885559
2023-10-26T00:21:14.110Z,50.885601
2023-10-26T00:22:14.130Z,50.885643
2023-10-26T00:23:14.121Z,50.885654
2023-10-26T00:24:14.090Z,50.885670
2023-10-26T00:25:15.047Z,50.885662
2023-10-26T00:26:14.031Z,50.885666
2023-10-26T00:27:14.033Z,50.885609
2023-10-26T00:28:14.063Z,50.885616
2023-10-26T00:29:14.020Z,50.885551
2023-10-26T00:30:14.061Z,50.885643
2023-10-26T00:31:14.027Z,50.885838
2023-10-26T00:32:14.081Z,50.885643
2023-10-26T00:33:14.019Z,50.885521
2023-10-26T00:34:14.034Z,50.885685
2023-10-26T00:35:13.970Z,50.885727
2023-10-26T00:36:14.107Z,50.885807
2023-10-26T00:37:14.043Z,50.885601
2023-10-26T00:38:14.004Z,50.885700
2023-10-26T00:39:14.043Z,50.885654
2023-10-26T00:40:13.968Z,50.885654
2023-10-26T00:41:13.968Z,50.885696
2023-10-26T00:42:13.941Z,50.885715
2023-10-26T00:43:13.929Z,50.885799
2023-10-26T00:44:13.940Z,50.885723
2023-10-26T00:45:13.961Z,50.885708
2023-10-26T00:46:13.901Z,50.885605
2023-10-26T00:47:13.961Z,50.885632
2023-10-26T00:48:13.994Z,50.885586
2023-10-26T00:49:13.958Z,50.885559
2023-10-26T00:50:13.905Z,50.885593
2023-10-26T00:51:13.897Z,50.885597
2023-10-26T00:52:13.866Z,50.885605
2023-10-26T00:53:13.877Z,50.885662
2023-10-26T00:54:13.896Z,50.885677
2023-10-26T00:55:13.890Z,50.885620
2023-10-26T00:56:13.889Z,50.885628
2023-10-26T00:57:13.886Z,50.885639
2023-10-26T00:58:13.876Z,50.885628
2023-10-26T00:59:13.862Z,50.885654
2023-10-26T01:00:13.901Z,50.885647
2023-10-26T01:01:13.822Z,50.885612
2023-10-26T01:02:13.842Z,50.885677
2023-10-26T01:03:13.866Z,50.885647
2023-10-26T01:04:13.846Z,50.885597
2023-10-26T01:05:13.858Z,50.885628
2023-10-26T01:06:13.863Z,50.885498
2023-10-26T01:07:13.808Z,50.885464
2023-10-26T01:08:13.831Z,50.885693
2023-10-26T01:09:13.840Z,50.885704
2023-10-26T01:10:13.829Z,50.885590
2023-10-26T01:11:13.792Z,50.885635
2023-10-26T01:12:13.877Z,50.885654
2023-10-26T01:13:13.826Z,50.885612
2023-10-26T01:14:13.773Z,50.885674
2023-10-26T01:15:13.863Z,50.885612
2023-10-26T01:16:13.785Z,50.885609
2023-10-26T01:17:13.761Z,50.885750
2023-10-26T01:18:13.813Z,50.885777
2023-10-26T01:19:13.757Z,50.885769
2023-10-26T01:20:13.794Z,50.885807
2023-10-26T01:21:13.866Z,50.885780
2023-10-26T01:22:13.778Z,50.885815
2023-10-26T01:23:13.718Z,50.885845
2023-10-26T01:24:13.806Z,50.885773
2023-10-26T01:25:13.817Z,50.885742
2023-10-26T01:26:13.788Z,50.885769
2023-10-26T01:27:13.728Z,50.885838
2023-10-26T01:28:13.728Z,50.885780
2023-10-26T01:29:13.697Z,50.885902
2023-10-26T01:30:13.754Z,50.885902
2023-10-26T01:31:13.705Z,50.885902
2023-10-26T01:32:13.674Z,50.885902
2023-10-26T01:33:13.852Z,50.885902
2023-10-26T01:34:13.707Z,50.885902
2023-10-26T01:35:13.727Z,50.885559
2023-10-26T01:36:13.750Z,50.885483
2023-10-26T01:37:13.671Z,50.885540
2023-10-26T01:38:13.665Z,50.885525
2023-10-26T01:39:13.680Z,50.885490
2023-10-26T01:40:13.650Z,50.885414
2023-10-26T01:41:13.663Z,50.885578
2023-10-26T01:42:13.737Z,50.885544
2023-10-26T01:43:13.632Z,50.885506
2023-10-26T01:44:14.641Z,50.885483
2023-10-26T01:45:13.732Z,50.885548
2023-10-26T01:46:13.664Z,50.885540
2023-10-26T01:47:13.628Z,50.885513
2023-10-26T01:48:13.717Z,50.885517
2023-10-26T01:49:13.615Z,50.885487
2023-10-26T01:50:13.643Z,50.885559
2023-10-26T01:51:13.658Z,50.885548
2023-10-26T01:52:13.598Z,50.885529
2023-10-26T01:53:13.625Z,50.885544
2023-10-26T01:54:13.620Z,50.885509
2023-10-26T01:55:13.605Z,50.885551
2023-10-26T01:56:13.608Z,50.885609
2023-10-26T01:57:13.594Z,50.885635
2023-10-26T01:58:13.581Z,50.885666
2023-10-26T01:59:13.550Z,50.885563
2023-10-26T02:00:13.662Z,50.885586
2023-10-26T02:01:13.570Z,50.885567
2023-10-26T02:02:13.552Z,50.885593
2023-10-26T02:03:13.663Z,50.885605
2023-10-26T02:04:13.547Z,50.885536
2023-10-26T02:05:13.600Z,50.885571
2023-10-26T02:06:13.589Z,50.885624
2023-10-26T02:07:13.541Z,50.885620
2023-10-26T02:08:13.515Z,50.885601
2023-10-26T02:09:13.559Z,50.885605
2023-10-26T02:10:13.501Z,50.885586
2023-10-26T02:11:13.494Z,50.885460
2023-10-26T02:12:13.552Z,50.885399
2023-10-26T02:13:13.480Z,50.885433
2023-10-26T02:14:13.481Z,50.885555
2023-10-26T02:15:13.516Z,50.885551
2023-10-26T02:16:13.574Z,50.885578
2023-10-26T02:17:13.443Z,50.885574
2023-10-26T02:18:14.412Z,50.885540
2023-10-26T02:19:13.506Z,50.885601
2023-10-26T02:20:13.486Z,50.885620
2023-10-26T02:21:13.529Z,50.885609
2023-10-26T02:22:13.439Z,50.885468
2023-10-26T02:23:13.463Z,50.885605
2023-10-26T02:24:13.431Z,50.885609
2023-10-26T02:25:13.402Z,50.885445
2023-10-26T02:26:13.454Z,50.885323
2023-10-26T02:27:13.453Z,50.885494
2023-10-26T02:28:13.386Z,50.885567
2023-10-26T02:29:14.428Z,50.885597
2023-10-26T02:30:13.543Z,50.885578
2023-10-26T02:31:13.420Z,50.885601
2023-10-26T02:32:13.402Z,50.885597
2023-10-26T02:33:13.435Z,50.885551
2023-10-26T02:34:13.367Z,50.885574
2023-10-26T02:35:13.375Z,50.885544
2023-10-26T02:36:13.459Z,50.885574
2023-10-26T02:37:13.391Z,50.885586
2023-10-26T02:38:13.383Z,50.885609
2023-10-26T02:39:13.421Z,50.885654
2023-10-26T02:40:13.356Z,50.885540
2023-10-26T02:41:13.324Z,50.885548
2023-10-26T02:42:13.411Z,50.885582
2023-10-26T02:43:13.350Z,50.885666
2023-10-26T02:44:13.331Z,50.885635
2023-10-26T02:45:13.359Z,50.885593
2023-10-26T02:46:13.340Z,50.885620
2023-10-26T02:47:13.321Z,50.885612
2023-10-26T02:48:13.360Z,50.885590
2023-10-26T02:49:13.321Z,50.885567
2023-10-26T02:50:13.377Z,50.885624
2023-10-26T02:51:13.336Z,50.885635
2023-10-26T02:52:13.317Z,50.885647
2023-10-26T02:53:13.269Z,50.885567
2023-10-26T02:54:13.316Z,50.885689
2023-10-26T02:55:13.276Z,50.885639
2023-10-26T02:56:13.256Z,50.885609
2023-10-26T02:57:13.302Z,50.885704
2023-10-26T02:58:13.291Z,50.885654
2023-10-26T02:59:13.236Z,50.885624
2023-10-26T03:00:13.390Z,50.885555
2023-10-26T03:01:13.264Z,50.885628
2023-10-26T03:02:13.269Z,50.885605
2023-10-26T03:03:13.413Z,50.885674
2023-10-26T03:04:13.369Z,50.885830
2023-10-26T03:05:13.259Z,50.885853
2023-10-26T03:06:13.264Z,50.885807
2023-10-26T03:07:13.453Z,50.885834
2023-10-26T03:08:13.201Z,50.885620
2023-10-26T03:09:13.369Z,50.885582
2023-10-26T03:10:13.284Z,50.885624
2023-10-26T03:11:13.191Z,50.885658
2023-10-26T03:12:13.212Z,50.885773
2023-10-26T03:13:13.176Z,50.885788
2023-10-26T03:14:13.194Z,50.885830
2023-10-26T03:15:13.218Z,50.885883
2023-10-26T03:16:13.166Z,50.885845
2023-10-26T03:17:13.188Z,50.885811
2023-10-26T03:18:13.238Z,50.885708
2023-10-26T03:19:13.171Z,50.885658
2023-10-26T03:20:13.231Z,50.885609
2023-10-26T03:21:13.253Z,50.885582
2023-10-26T03:22:13.153Z,50.885605
2023-10-26T03:23:13.153Z,50.885628
2023-10-26T03:24:13.181Z,50.885612
2023-10-26T03:25:13.118Z,50.885612
2023-10-26T03:26:13.125Z,50.885639
2023-10-26T03:27:13.169Z,50.885578
2023-10-26T03:28:13.096Z,50.885548
2023-10-26T03:29:13.111Z,50.885605
2023-10-26T03:30:13.177Z,50.885712
2023-10-26T03:31:13.100Z,50.885822
2023-10-26T03:32:13.106Z,50.885769
2023-10-26T03:33:13.233Z,50.885769
2023-10-26T03:34:13.094Z,50.885815
2023-10-26T03:35:13.077Z,50.885899
2023-10-26T03:36:13.169Z,50.885895
2023-10-26T03:37:13.150Z,50.885818
2023-10-26T03:38:13.096Z,50.885696
2023-10-26T03:39:13.115Z,50.885674
2023-10-26T03:40:13.093Z,50.885719
2023-10-26T03:41:13.051Z,50.885635
2023-10-26T03:42:13.128Z,50.885788
2023-10-26T03:43:13.035Z,50.885757
2023-10-26T03:44:13.093Z,50.885761
2023-10-26T03:45:13.065Z,50.885647
2023-10-26T03:46:13.047Z,50.885609
2023-10-26T03:47:13.228Z,50.885540
2023-10-26T03:48:13.134Z,50.885422
2023-10-26T03:49:13.018Z,50.885441
2023-10-26T03:50:13.061Z,50.885582
2023-10-26T03:51:13.012Z,50.885704
2023-10-26T03:52:13.009Z,50.885647
2023-10-26T03:53:13.018Z,50.885593
2023-10-26T03:54:13.030Z,50.885612
2023-10-26T03:55:12.996Z,50.885521
2023-10-26T03:56:12.992Z,50.885712
2023-10-26T03:57:13.020Z,50.885475
2023-10-26T03:58:12.996Z,50.885418
2023-10-26T03:59:12.933Z,50.885620
2023-10-26T04:00:13.031Z,50.885540
2023-10-26T04:01:12.956Z,50.885597
2023-10-26T04:02:13.039Z,50.885624
2023-10-26T04:03:13.011Z,50.885769
2023-10-26T04:04:12.930Z,50.885712
2023-10-26T04:05:12.944Z,50.885807
2023-10-26T04:06:12.976Z,50.885597
2023-10-26T04:07:12.918Z,50.885658
2023-10-26T04:08:12.938Z,50.885632
2023-10-26T04:09:12.919Z,50.885639
2023-10-26T04:10:12.911Z,50.885616
2023-10-26T04:11:12.903Z,50.885609
2023-10-26T04:12:12.890Z,50.885632
2023-10-26T04:13:12.902Z,50.885586
2023-10-26T04:14:12.887Z,50.885616
2023-10-26T04:15:12.946Z,50.885563
2023-10-26T04:16:13.920Z,50.885571
2023-10-26T04:17:12.840Z,50.885551
2023-10-26T04:18:12.944Z,50.885536
2023-10-26T04:19:12.877Z,50.885563
2023-10-26T04:20:12.889Z,50.885574
2023-10-26T04:21:12.880Z,50.885578
2023-10-26T04:22:12.859Z,50.885593
2023-10-26T04:23:12.856Z,50.885529
2023-10-26T04:24:12.875Z,50.885666
2023-10-26T04:25:12.827Z,50.885670
2023-10-26T04:26:12.832Z,50.885662
2023-10-26T04:27:12.849Z,50.885670
2023-10-26T04:28:12.862Z,50.885616
2023-10-26T04:29:12.788Z,50.885658
2023-10-26T04:30:12.820Z,50.885609
2023-10-26T04:31:12.802Z,50.885601
2023-10-26T04:32:12.797Z,50.885635
2023-10-26T04:33:13.967Z,50.885609
2023-10-26T04:34:12.803Z,50.885632
2023-10-26T04:35:12.804Z,50.885624
2023-10-26T04:36:12.794Z,50.885559
2023-10-26T04:37:12.803Z,50.885498
2023-10-26T04:38:12.780Z,50.885540
2023-10-26T04:39:12.851Z,50.885597
2023-10-26T04:40:12.764Z,50.885639
2023-10-26T04:41:12.863Z,50.885597
2023-10-26T04:42:12.771Z,50.885578
2023-10-26T04:43:12.758Z,50.885456
2023-10-26T04:44:12.740Z,50.885464
2023-10-26T04:45:12.729Z,50.885567
2023-10-26T04:46:12.770Z,50.885719
2023-10-26T04:47:12.731Z,50.885571
2023-10-26T04:48:12.772Z,50.885567
2023-10-26T04:49:12.728Z,50.885574
2023-10-26T04:50:12.695Z,50.885609
2023-10-26T04:51:12.720Z,50.885651
2023-10-26T04:52:12.696Z,50.885693
2023-10-26T04:53:12.732Z,50.885654
2023-10-26T04:54:12.723Z,50.885696
2023-10-26T04:55:12.713Z,50.885670
2023-10-26T04:56:12.675Z,50.885719
2023-10-26T04:57:12.732Z,50.885677
2023-10-26T04:58:12.769Z,50.885479
2023-10-26T04:59:12.681Z,50.885616
2023-10-26T05:00:12.663Z,50.885593
2023-10-26T05:01:13.714Z,50.885677
2023-10-26T05:02:46.920Z,50.885681
2023-10-26T05:03:12.781Z,50.885628
2023-10-26T05:04:12.638Z,50.885586
2023-10-26T05:05:12.624Z,50.885513
2023-10-26T05:06:12.662Z,50.885685
2023-10-26T05:07:12.611Z,50.885601
2023-10-26T05:08:12.631Z,50.885666
2023-10-26T05:09:12.647Z,50.885586
2023-10-26T05:10:12.616Z,50.885624
2023-10-26T05:11:12.606Z,50.885666
2023-10-26T05:12:12.600Z,50.885654
2023-10-26T05:13:12.581Z,50.885662
2023-10-26T05:14:12.592Z,50.885700
2023-10-26T05:15:12.620Z,50.885563
2023-10-26T05:16:12.682Z,50.885578
2023-10-26T05:17:12.581Z,50.885609
2023-10-26T05:18:12.660Z,50.885612
2023-10-26T05:19:12.613Z,50.885651
2023-10-26T05:20:12.572Z,50.885651
2023-10-26T05:21:12.524Z,50.885628
2023-10-26T05:22:12.545Z,50.885616
2023-10-26T05:23:12.537Z,50.885624
2023-10-26T05:24:12.526Z,50.885624
2023-10-26T05:25:12.557Z,50.885651
2023-10-26T05:26:12.527Z,50.885628
2023-10-26T05:27:12.512Z,50.885742
2023-10-26T05:28:12.534Z,50.885654
2023-10-26T05:29:12.495Z,50.885643
2023-10-26T05:30:12.496Z,50.885643
2023-10-26T05:31:12.500Z,50.885651
2023-10-26T05:32:12.505Z,50.885609
2023-10-26T05:33:12.586Z,50.885574
2023-10-26T05:34:12.501Z,50.885563
2023-10-26T05:35:12.469Z,50.885635
2023-10-26T05:36:12.517Z,50.885616
2023-10-26T05:37:12.442Z,50.885654
2023-10-26T05:38:12.447Z,50.885654
2023-10-26T05:39:12.505Z,50.885685
2023-10-26T05:40:12.438Z,50.885639
2023-10-26T05:41:12.447Z,50.885403
2023-10-26T05:42:12.438Z,50.885517
2023-10-26T05:43:12.426Z,50.885448
2023-10-26T05:44:12.430Z,50.885521
2023-10-26T05:45:12.416Z,50.885479
2023-10-26T05:46:12.460Z,50.885639
2023-10-26T05:47:12.390Z,50.885738
2023-10-26T05:48:12.478Z,50.885696
2023-10-26T05:49:12.380Z,50.885517
2023-10-26T05:50:12.355Z,50.885536
2023-10-26T05:51:13.384Z,50.885578
2023-10-26T05:52:12.366Z,50.885643
2023-10-26T05:53:12.365Z,50.885616
2023-10-26T05:54:12.458Z,50.885529
2023-10-26T05:55:12.369Z,50.885578
2023-10-26T05:56:12.377Z,50.885612
2023-10-26T05:57:12.356Z,50.885681
2023-10-26T05:58:12.338Z,50.885715
2023-10-26T05:59:12.381Z,50.885651
2023-10-26T06:00:12.334Z,50.885681
2023-10-26T06:01:12.343Z,50.885643
2023-10-26T06:02:12.325Z,50.885490
2023-10-26T06:03:12.365Z,50.885586
2023-10-26T06:04:12.335Z,50.885643
2023-10-26T06:05:12.285Z,50.885517
2023-10-26T06:06:12.306Z,50.885582
2023-10-26T06:07:12.302Z,50.885811
2023-10-26T06:08:12.289Z,50.885754
2023-10-26T06:09:12.390Z,50.885548
2023-10-26T06:10:12.279Z,50.885578
2023-10-26T06:11:12.272Z,50.885620
2023-10-26T06:12:12.288Z,50.885616
2023-10-26T06:13:12.287Z,50.885597
2023-10-26T06:14:12.295Z,50.885567
2023-10-26T06:15:12.294Z,50.885647
2023-10-26T06:16:12.262Z,50.885651
2023-10-26T06:17:12.239Z,50.885559
2023-10-26T06:18:12.271Z,50.885765
2023-10-26T06:19:12.250Z,50.885807
2023-10-26T06:20:13.564Z,50.886093
2023-10-26T06:21:12.273Z,50.886105
2023-10-26T06:22:12.193Z,50.885574
2023-10-26T06:23:12.196Z,50.885677
2023-10-26T06:24:12.258Z,50.885715
2023-10-26T06:25:12.210Z,50.885662
2023-10-26T06:26:12.211Z,50.885662
2023-10-26T06:27:12.198Z,50.885662
2023-10-26T06:28:12.166Z,50.885643
2023-10-26T06:29:12.205Z,50.885715
2023-10-26T06:30:12.224Z,50.885632
2023-10-26T06:31:12.168Z,50.885654
2023-10-26T06:32:12.160Z,50.885639
2023-10-26T06:33:12.218Z,50.885616
2023-10-26T06:34:12.172Z,50.885620
2023-10-26T06:35:12.176Z,50.885658
2023-10-26T06:36:12.175Z,50.885704
2023-10-26T06:37:12.110Z,50.885719
2023-10-26T06:38:12.120Z,50.885681
2023-10-26T06:39:12.200Z,50.885628
2023-10-26T06:40:12.143Z,50.885609
2023-10-26T06:41:12.102Z,50.885525
2023-10-26T06:42:12.134Z,50.885529
2023-10-26T06:43:12.123Z,50.885551
2023-10-26T06:44:12.158Z,50.885567
2023-10-26T06:45:12.117Z,50.885616
2023-10-26T06:46:12.104Z,50.885620
2023-10-26T06:47:12.098Z,50.885616
2023-10-26T06:48:13.727Z,50.885620
2023-10-26T06:49:26.541Z,50.885544
2023-10-26T06:50:14.089Z,50.885548
2023-10-26T06:51:12.086Z,50.885590
2023-10-26T06:52:12.816Z,50.885715
2023-10-26T06:53:12.046Z,50.885635
2023-10-26T06:54:12.092Z,50.885651
2023-10-26T06:55:19.715Z,50.885632
2023-10-26T06:56:14.071Z,50.885681
2023-10-26T06:57:12.068Z,50.885632
2023-10-26T06:58:12.016Z,50.885651
2023-10-26T06:59:11.995Z,50.885635
2023-10-26T07:00:12.168Z,50.885704
2023-10-26T07:01:20.720Z,50.885685
2023-10-26T07:02:13.096Z,50.885624
2023-10-26T07:03:12.072Z,50.885685
2023-10-26T07:04:12.056Z,50.885647
2023-10-26T07:05:12.128Z,50.885624
2023-10-26T07:06:12.030Z,50.885654
2023-10-26T07:07:12.036Z,50.885632
2023-10-26T07:08:12.087Z,50.885643
2023-10-26T07:09:12.019Z,50.885624
2023-10-26T07:10:12.076Z,50.885632
2023-10-26T07:11:12.024Z,50.885654
2023-10-26T07:12:12.008Z,50.885624
2023-10-26T07:13:12.127Z,50.885628
2023-10-26T07:14:11.995Z,50.885647
2023-10-26T07:15:12.074Z,50.885654
2023-10-26T07:16:12.010Z,50.885635
2023-10-26T07:17:11.947Z,50.885647
2023-10-26T07:18:12.212Z,50.885628
2023-10-26T07:19:11.981Z,50.885628
2023-10-26T07:20:11.943Z,50.885654
2023-10-26T07:21:11.941Z,50.885612
2023-10-26T07:22:11.949Z,50.885662
2023-10-26T07:23:11.996Z,50.885635
2023-10-26T07:24:12.024Z,50.885643
2023-10-26T07:25:12.067Z,50.885677
2023-10-26T07:26:12.457Z,50.885654
2023-10-26T07:27:11.901Z,50.885651
2023-10-26T07:28:11.891Z,50.885635
2023-10-26T07:29:11.874Z,50.885632
2023-10-26T07:30:12.037Z,50.885563
2023-10-26T07:31:11.893Z,50.885681
2023-10-26T07:32:11.979Z,50.885735
2023-10-26T07:33:12.020Z,50.885700
2023-10-26T07:34:11.870Z,50.885651
2023-10-26T07:35:11.940Z,50.885651
2023-10-26T07:36:12.859Z,50.885643
2023-10-26T07:37:11.906Z,50.885662
2023-10-26T07:38:35.232Z,50.885635
2023-10-26T07:39:46.308Z,50.885708
2023-10-26T07:40:28.387Z,50.885677
2023-10-26T07:41:12.838Z,50.885712
2023-10-26T07:42:11.874Z,50.885715
2023-10-26T07:43:11.871Z,50.885651
2023-10-26T07:44:11.806Z,50.885639
2023-10-26T07:45:11.966Z,50.885654
2023-10-26T07:46:11.873Z,50.885616
2023-10-26T07:47:11.836Z,50.885612
2023-10-26T07:48:11.897Z,50.885605
2023-10-26T07:49:11.772Z,50.885662
2023-10-26T07:50:11.791Z,50.885693
2023-10-26T07:51:11.931Z,50.885700
2023-10-26T07:52:11.803Z,50.885693
2023-10-26T07:53:11.783Z,50.885643
2023-10-26T07:54:11.789Z,50.885674
2023-10-26T07:55:11.874Z,50.885674
2023-10-26T07:56:11.825Z,50.885689
2023-10-26T07:57:11.748Z,50.885704
2023-10-26T07:58:11.741Z,50.885529
2023-10-26T07:59:11.753Z,50.885643
2023-10-26T08:00:11.766Z,50.885624
2023-10-26T08:01:11.829Z,50.885719
2023-10-26T08:02:11.826Z,50.885567
2023-10-26T08:03:11.771Z,50.885517
2023-10-26T08:04:11.732Z,50.885262
2023-10-26T08:05:12.335Z,50.885017
2023-10-26T08:06:11.713Z,50.884663
2023-10-26T08:07:11.694Z,50.884727
2023-10-26T08:08:11.787Z,50.884525
2023-10-26T08:09:11.779Z,50.884876
2023-10-26T08:10:11.710Z,50.884888
2023-10-26T08:11:11.729Z,50.885212
2023-10-26T08:12:11.895Z,50.885235
2023-10-26T08:13:11.770Z,50.885384
2023-10-26T08:14:33.986Z,50.885227
2023-10-26T08:16:29.953Z,50.885235
2023-10-26T08:16:42.011Z,50.885151
2023-10-26T08:17:12.998Z,50.885342
2023-10-26T08:18:12.945Z,50.885212
2023-10-26T08:19:11.845Z,50.885338
2023-10-26T08:20:13.417Z,50.885544
2023-10-26T08:21:11.975Z,50.885548
2023-10-26T08:22:11.688Z,50.885788
2023-10-26T08:23:11.709Z,50.885788
2023-10-26T08:24:11.902Z,50.886158
2023-10-26T08:25:11.718Z,50.886883
2023-10-26T08:26:11.694Z,50.886417
2023-10-26T08:27:12.244Z,50.886261
2023-10-26T08:28:11.724Z,50.885635
2023-10-26T08:29:18.489Z,50.885563
2023-10-26T08:30:12.658Z,50.885784
2023-10-26T08:31:12.764Z,50.885498
2023-10-26T08:32:11.817Z,50.886169
2023-10-26T08:33:13.156Z,50.885632
2023-10-26T08:34:11.652Z,50.885708
2023-10-26T08:35:11.900Z,50.885605
2023-10-26T08:36:11.552Z,50.885666
2023-10-26T08:37:13.761Z,50.885639
2023-10-26T08:38:12.535Z,50.885487
2023-10-26T08:39:12.565Z,50.885563
2023-10-26T08:40:11.553Z,50.885521
2023-10-26T08:41:11.509Z,50.885441
2023-10-26T08:42:13.568Z,50.885757
2023-10-26T08:43:11.527Z,50.885971
2023-10-26T08:44:12.426Z,50.885971
2023-10-26T08:45:11.507Z,50.885971
2023-10-26T08:46:11.535Z,50.885971
2023-10-26T08:47:11.685Z,50.885403
2023-10-26T08:48:11.562Z,50.885502
2023-10-26T08:49:11.460Z,50.885590
2023-10-26T08:50:16.667Z,50.885872
2023-10-26T08:51:12.492Z,50.885391
2023-10-26T08:52:11.555Z,50.885906
2023-10-26T08:53:11.489Z,50.885307
2023-10-26T08:54:11.479Z,50.885929
2023-10-26T08:55:11.537Z,50.886955
2023-10-26T08:56:11.465Z,50.887386
2023-10-26T08:57:11.508Z,50.885822
2023-10-26T08:58:11.576Z,50.885918
2023-10-26T08:59:11.478Z,50.886097
2023-10-26T09:00:11.459Z,50.885818
2023-10-26T09:01:11.440Z,50.885662
2023-10-26T09:02:11.473Z,50.885796
2023-10-26T09:03:11.646Z,50.885689
2023-10-26T09:04:11.563Z,50.885792
2023-10-26T09:05:11.424Z,50.885666
2023-10-26T09:06:11.378Z,50.885784
2023-10-26T09:07:11.412Z,50.885674
2023-10-26T09:08:11.442Z,50.885738
2023-10-26T09:09:11.364Z,50.885735
2023-10-26T09:10:11.395Z,50.885784
2023-10-26T09:11:11.417Z,50.885845
2023-10-26T09:12:11.362Z,50.885834
2023-10-26T09:13:11.373Z,50.885853
2023-10-26T09:14:11.360Z,50.885826
2023-10-26T09:15:11.347Z,50.885860
2023-10-26T09:16:11.388Z,50.885841
2023-10-26T09:17:11.448Z,50.885841
2023-10-26T09:18:11.473Z,50.885815
2023-10-26T09:19:11.861Z,50.885750
2023-10-26T09:20:11.327Z,50.885727
2023-10-26T09:21:11.306Z,50.885700
2023-10-26T09:22:11.324Z,50.885696
2023-10-26T09:23:11.307Z,50.885700
2023-10-26T09:24:11.354Z,50.885612
2023-10-26T09:25:11.303Z,50.885582
2023-10-26T09:26:11.500Z,50.885571
2023-10-26T09:27:11.274Z,50.885601
2023-10-26T09:28:11.300Z,50.885647
2023-10-26T09:29:11.322Z,50.885845
2023-10-26T09:30:11.285Z,50.885860
2023-10-26T09:31:11.291Z,50.885834
2023-10-26T09:32:11.365Z,50.885750
2023-10-26T09:33:11.293Z,50.885670
2023-10-26T09:34:11.249Z,50.885643
2023-10-26T09:35:11.326Z,50.885586
2023-10-26T09:36:11.284Z,50.885559
2023-10-26T09:37:11.254Z,50.885590
2023-10-26T09:38:11.248Z,50.885586
2023-10-26T09:39:11.291Z,50.885567
2023-10-26T09:40:16.308Z,50.885597
2023-10-26T09:41:12.227Z,50.885551
2023-10-26T09:42:12.360Z,50.885590
2023-10-26T09:43:12.244Z,50.885612
2023-10-26T09:44:11.223Z,50.885639
2023-10-26T09:45:11.200Z,50.885590
2023-10-26T09:46:11.345Z,50.885586
2023-10-26T09:47:11.382Z,50.885582
2023-10-26T09:48:11.277Z,50.885590
2023-10-26T09:49:11.180Z,50.885593
2023-10-26T09:50:11.202Z,50.885567
2023-10-26T09:51:11.217Z,50.885559
2023-10-26T09:52:11.146Z,50.885529
2023-10-26T09:54:12.255Z,50.885525
2023-10-26T09:55:11.180Z,50.885639
2023-10-26T09:56:11.231Z,50.885517
2023-10-26T09:57:11.155Z,50.885593
2023-10-26T09:58:11.170Z,50.885578
2023-10-26T09:59:11.169Z,50.885624
2023-10-26T10:00:11.152Z,50.885540
2023-10-26T10:01:11.134Z,50.885620
2023-10-26T10:02:11.126Z,50.885662
2023-10-26T10:03:11.212Z,50.885593
2023-10-26T10:04:11.119Z,50.885605
2023-10-26T10:05:11.116Z,50.885586
2023-10-26T10:06:11.166Z,50.885593
2023-10-26T10:07:11.119Z,50.885517
2023-10-26T10:08:11.363Z,50.885559
2023-10-26T10:09:11.077Z,50.885578
2023-10-26T10:10:11.095Z,50.885574
2023-10-26T10:11:11.118Z,50.885563
2023-10-26T10:12:11.099Z,50.885651
2023-10-26T10:13:11.084Z,50.885689
2023-10-26T10:14:11.100Z,50.885651
2023-10-26T10:15:36.435Z,50.885609
2023-10-26T10:16:11.218Z,50.885551
2023-10-26T10:17:11.081Z,50.885464
2023-10-26T10:18:11.177Z,50.885559
2023-10-26T10:19:11.049Z,50.885620
2023-10-26T10:20:11.056Z,50.885586
2023-10-26T10:21:11.006Z,50.885536
2023-10-26T10:22:11.020Z,50.885586
2023-10-26T10:23:11.055Z,50.885654
2023-10-26T10:24:11.026Z,50.885590
2023-10-26T10:25:11.071Z,50.885574
2023-10-26T10:26:24.188Z,50.885529
2023-10-26T10:27:12.043Z,50.885609
2023-10-26T10:28:11.000Z,50.885582
2023-10-26T10:29:11.010Z,50.885597
2023-10-26T10:30:10.989Z,50.885620
2023-10-26T10:31:11.016Z,50.885639
2023-10-26T10:32:10.990Z,50.885624
2023-10-26T10:33:10.980Z,50.885620
2023-10-26T10:34:11.013Z,50.885620
2023-10-26T10:35:10.947Z,50.885635
2023-10-26T10:36:10.965Z,50.885590
2023-10-26T10:37:10.936Z,50.885612
2023-10-26T10:38:10.988Z,50.885632
2023-10-26T10:39:10.954Z,50.885635
2023-10-26T10:40:10.944Z,50.885616
2023-10-26T10:41:10.928Z,50.885616
2023-10-26T10:42:10.950Z,50.885609
2023-10-26T10:43:10.879Z,50.885620
2023-10-26T10:44:10.908Z,50.885643
2023-10-26T10:45:10.936Z,50.885605
2023-10-26T10:46:10.956Z,50.885597
2023-10-26T10:47:10.891Z,50.885628
2023-10-26T10:48:10.859Z,50.885632
2023-10-26T10:49:10.837Z,50.885632
2023-10-26T10:50:10.860Z,50.885616
2023-10-26T10:51:10.834Z,50.885468
2023-10-26T10:52:10.817Z,50.885456
2023-10-26T10:53:10.806Z,50.885551
2023-10-26T10:54:26.302Z,50.885551
2023-10-26T10:55:12.898Z,50.885517
2023-10-26T10:56:10.830Z,50.885471
2023-10-26T10:57:10.812Z,50.885490
2023-10-26T10:58:10.896Z,50.885521
2023-10-26T10:59:10.806Z,50.885586
2023-10-26T11:00:10.811Z,50.885597
2023-10-26T11:01:10.768Z,50.885578
2023-10-26T11:02:11.820Z,50.885574
2023-10-26T11:03:10.838Z,50.885574
2023-10-26T11:04:11.878Z,50.885567
2023-10-26T11:05:18.028Z,50.885590
2023-10-26T11:06:11.793Z,50.885586
2023-10-26T11:07:10.803Z,50.885559
2023-10-26T11:08:10.831Z,50.885574
2023-10-26T11:09:11.118Z,50.885605
2023-10-26T11:10:10.786Z,50.885624
2023-10-26T11:11:10.805Z,50.885597
2023-10-26T11:12:10.851Z,50.885578
2023-10-26T11:13:10.762Z,50.885628
2023-10-26T11:14:10.784Z,50.885632
2023-10-26T11:15:10.772Z,50.885612
2023-10-26T11:16:10.812Z,50.885674
2023-10-26T11:17:10.766Z,50.885651
2023-10-26T11:18:10.768Z,50.885635
2023-10-26T11:19:10.761Z,50.885643
2023-10-26T11:20:10.727Z,50.885624
2023-10-26T11:21:10.802Z,50.885670
2023-10-26T11:22:10.725Z,50.885632
2023-10-26T11:23:10.765Z,50.885624
2023-10-26T11:24:10.761Z,50.885662
2023-10-26T11:25:10.742Z,50.885601